createdAt,value
2022-11-03T00:00:16.526Z,2.88
2022-11-03T00:01:17.052Z,2.91
2022-11-03T00:02:16.747Z,2.88
2022-11-03T00:03:16.548Z,2.92
2022-11-03T00:04:17.009Z,2.92
2022-11-03T00:05:16.437Z,2.91
2022-11-03T00:06:16.882Z,2.89
2022-11-03T00:07:16.311Z,2.86
2022-11-03T00:08:16.772Z,2.84
2022-11-03T00:09:17.288Z,2.88
2022-11-03T00:10:16.744Z,2.85
2022-11-03T00:11:17.211Z,2.85
2022-11-03T00:12:16.795Z,2.84
2022-11-03T00:13:17.317Z,2.82
2022-11-03T00:14:16.816Z,2.76
2022-11-03T00:15:17.284Z,2.78
2022-11-03T00:16:16.739Z,2.79
2022-11-03T00:17:17.231Z,2.76
2022-11-03T00:18:16.665Z,2.78
2022-11-03T00:19:17.363Z,2.78
2022-11-03T00:20:17.150Z,2.78
2022-11-03T00:21:16.583Z,2.81
2022-11-03T00:22:17.019Z,2.82
2022-11-03T00:23:16.507Z,2.76
2022-11-03T00:24:16.983Z,2.76
2022-11-03T00:25:16.484Z,2.76
2022-11-03T00:26:16.993Z,2.76
2022-11-03T00:27:16.495Z,2.75
2022-11-03T00:28:16.984Z,2.74
2022-11-03T00:29:16.461Z,2.76
2022-11-03T00:30:16.933Z,2.76
2022-11-03T00:31:16.379Z,2.74
2022-11-03T00:32:16.578Z,2.67
2022-11-03T00:33:17.031Z,2.63
2022-11-03T00:34:16.455Z,2.61
2022-11-03T00:35:16.922Z,2.63
2022-11-03T00:36:16.362Z,2.61
2022-11-03T00:37:16.810Z,2.64
2022-11-03T00:38:17.313Z,2.64
2022-11-03T00:39:16.805Z,2.64
2022-11-03T00:40:17.301Z,2.64
2022-11-03T00:41:16.818Z,2.65
2022-11-03T00:42:16.750Z,2.68
2022-11-03T00:43:17.249Z,2.68
2022-11-03T00:44:16.738Z,2.63
2022-11-03T00:45:17.175Z,2.64
2022-11-03T00:46:16.588Z,2.64
2022-11-03T00:47:18.918Z,2.64
2022-11-03T00:48:16.711Z,2.61
2022-11-03T00:49:17.186Z,2.61
2022-11-03T00:50:16.614Z,2.61
2022-11-03T00:51:17.053Z,2.63
2022-11-03T00:52:16.903Z,2.64
2022-11-03T00:53:16.413Z,2.53
2022-11-03T00:54:16.920Z,2.45
2022-11-03T00:55:16.464Z,2.48
2022-11-03T00:56:16.948Z,2.50
2022-11-03T00:57:16.432Z,2.47
2022-11-03T00:58:16.896Z,2.48
2022-11-03T00:59:16.355Z,2.47
2022-11-03T01:00:16.833Z,2.43
2022-11-03T01:01:17.446Z,2.43
2022-11-03T01:02:16.466Z,2.44
2022-11-03T01:03:17.128Z,2.37
2022-11-03T01:04:16.553Z,2.33
2022-11-03T01:05:17.001Z,2.29
2022-11-03T01:06:16.450Z,2.29
2022-11-03T01:07:16.942Z,2.30
2022-11-03T01:08:16.402Z,2.30
2022-11-03T01:09:16.875Z,2.30
2022-11-03T01:10:16.333Z,2.32
2022-11-03T01:11:16.838Z,2.30
2022-11-03T01:12:16.456Z,2.34
2022-11-03T01:13:16.953Z,2.32
2022-11-03T01:14:16.380Z,2.33
2022-11-03T01:15:16.867Z,2.34
2022-11-03T01:16:16.313Z,2.38
2022-11-03T01:17:16.758Z,2.37
2022-11-03T01:18:17.197Z,2.38
2022-11-03T01:19:16.620Z,2.43
2022-11-03T01:20:17.063Z,2.41
2022-11-03T01:21:16.531Z,2.40
2022-11-03T01:22:16.921Z,2.44
2022-11-03T01:23:16.410Z,2.45
2022-11-03T01:24:16.892Z,2.48
2022-11-03T01:25:16.374Z,2.53
2022-11-03T01:26:16.840Z,2.51
2022-11-03T01:27:16.314Z,2.50
2022-11-03T01:28:16.768Z,2.50
2022-11-03T01:29:17.222Z,2.47
2022-11-03T01:30:16.659Z,2.47
2022-11-03T01:31:17.085Z,2.45
2022-11-03T01:32:16.954Z,2.44
2022-11-03T01:33:16.416Z,2.41
2022-11-03T01:34:16.846Z,2.40
2022-11-03T01:35:16.290Z,2.40
2022-11-03T01:36:16.723Z,2.40
2022-11-03T01:37:17.208Z,2.43
2022-11-03T01:38:16.678Z,2.37
2022-11-03T01:39:17.148Z,2.29
2022-11-03T01:40:16.604Z,2.24
2022-11-03T01:41:17.071Z,2.27
2022-11-03T01:42:17.063Z,2.26
2022-11-03T01:43:16.507Z,2.21
2022-11-03T01:44:16.938Z,2.16
2022-11-03T01:45:16.379Z,2.09
2022-11-03T01:46:16.820Z,2.00
2022-11-03T01:47:17.663Z,2.02
2022-11-03T01:48:17.124Z,1.99
2022-11-03T01:49:16.569Z,1.98
2022-11-03T01:50:17.036Z,1.98
2022-11-03T01:51:16.500Z,1.99
2022-11-03T01:52:17.108Z,2.05
2022-11-03T01:53:16.566Z,2.06
2022-11-03T01:54:17.049Z,2.06
2022-11-03T01:55:16.518Z,2.03
2022-11-03T01:56:17.021Z,2.02
2022-11-03T01:57:16.497Z,2.06
2022-11-03T01:58:16.966Z,1.98
2022-11-03T01:59:16.408Z,1.89
2022-11-03T02:00:16.882Z,1.68
2022-11-03T02:01:16.371Z,1.69
2022-11-03T02:02:16.858Z,1.64
2022-11-03T02:03:16.477Z,1.65
2022-11-03T02:04:16.920Z,1.65
2022-11-03T02:05:16.387Z,1.69
2022-11-03T02:06:16.933Z,1.72
2022-11-03T02:07:16.385Z,1.69
2022-11-03T02:08:16.884Z,1.64
2022-11-03T02:09:16.385Z,1.57
2022-11-03T02:10:16.855Z,1.60
2022-11-03T02:11:16.323Z,1.54
2022-11-03T02:12:16.976Z,1.58
2022-11-03T02:13:16.397Z,1.64
2022-11-03T02:14:16.845Z,1.61
2022-11-03T02:15:17.287Z,1.65
2022-11-03T02:16:16.723Z,1.68
2022-11-03T02:17:17.177Z,1.69
2022-11-03T02:18:16.612Z,1.67
2022-11-03T02:19:17.052Z,1.68
2022-11-03T02:20:16.504Z,1.69
2022-11-03T02:21:16.965Z,1.67
2022-11-03T02:22:16.940Z,1.65
2022-11-03T02:23:16.400Z,1.67
2022-11-03T02:24:16.876Z,1.64
2022-11-03T02:25:16.336Z,1.67
2022-11-03T02:26:16.826Z,1.69
2022-11-03T02:27:17.294Z,1.69
2022-11-03T02:28:16.754Z,1.72
2022-11-03T02:29:17.195Z,1.77
2022-11-03T02:30:16.682Z,1.77
2022-11-03T02:31:17.127Z,1.77
2022-11-03T02:32:16.333Z,1.77
2022-11-03T02:33:16.778Z,1.79
2022-11-03T02:34:17.255Z,1.77
2022-11-03T02:35:16.736Z,1.78
2022-11-03T02:36:17.221Z,1.77
2022-11-03T02:37:16.671Z,1.77
2022-11-03T02:38:17.129Z,1.83
2022-11-03T02:39:16.640Z,1.53
2022-11-03T02:40:17.130Z,1.57
2022-11-03T02:41:16.588Z,1.62
2022-11-03T02:42:16.406Z,1.64
2022-11-03T02:43:16.837Z,1.69
2022-11-03T02:44:17.285Z,1.75
2022-11-03T02:45:17.423Z,1.79
2022-11-03T02:46:17.181Z,1.78
2022-11-03T02:47:16.602Z,1.75
2022-11-03T02:48:17.049Z,1.75
2022-11-03T02:49:16.487Z,1.71
2022-11-03T02:50:16.975Z,1.74
2022-11-03T02:51:16.438Z,1.75
2022-11-03T02:52:16.308Z,1.71
2022-11-03T02:53:16.900Z,1.64
2022-11-03T02:54:16.394Z,1.55
2022-11-03T02:55:16.864Z,1.53
2022-11-03T02:56:16.301Z,1.53
2022-11-03T02:57:16.729Z,1.48
2022-11-03T02:58:17.175Z,1.44
2022-11-03T02:59:16.609Z,1.37
2022-11-03T03:00:17.061Z,1.26
2022-11-03T03:01:16.572Z,1.26
2022-11-03T03:02:16.708Z,1.33
2022-11-03T03:03:17.288Z,1.40
2022-11-03T03:04:16.744Z,1.43
2022-11-03T03:05:17.209Z,1.39
2022-11-03T03:06:16.675Z,1.30
2022-11-03T03:07:17.129Z,1.20
2022-11-03T03:08:16.585Z,0.78
2022-11-03T03:09:17.029Z,0.71
2022-11-03T03:10:16.496Z,0.63
2022-11-03T03:11:16.946Z,0.68
2022-11-03T03:12:16.377Z,0.79
2022-11-03T03:13:16.829Z,0.78
2022-11-03T03:14:17.252Z,0.79
2022-11-03T03:15:16.716Z,0.82
2022-11-03T03:16:17.139Z,0.85
2022-11-03T03:17:16.584Z,0.88
2022-11-03T03:18:17.028Z,0.95
2022-11-03T03:19:16.473Z,0.99
2022-11-03T03:20:16.982Z,1.04
2022-11-03T03:21:16.477Z,1.02
2022-11-03T03:22:16.725Z,1.00
2022-11-03T03:23:17.648Z,1.00
2022-11-03T03:24:17.135Z,0.98
2022-11-03T03:25:16.599Z,0.93
2022-11-03T03:26:17.022Z,0.89
2022-11-03T03:27:16.492Z,0.83
2022-11-03T03:28:16.926Z,0.86
2022-11-03T03:29:16.345Z,0.91
2022-11-03T03:30:16.776Z,0.92
2022-11-03T03:31:17.249Z,0.95
2022-11-03T03:32:16.981Z,0.93
2022-11-03T03:33:16.526Z,1.06
2022-11-03T03:34:33.712Z,1.16
2022-11-03T03:35:16.627Z,1.19
2022-11-03T03:36:17.137Z,1.09
2022-11-03T03:37:16.598Z,1.04
2022-11-03T03:38:17.059Z,1.00
2022-11-03T03:39:16.506Z,0.96
2022-11-03T03:40:16.977Z,1.04
2022-11-03T03:41:16.432Z,1.04
2022-11-03T03:42:16.443Z,1.04
2022-11-03T03:43:16.884Z,1.06
2022-11-03T03:44:16.361Z,1.02
2022-11-03T03:45:16.783Z,1.13
2022-11-03T03:46:17.246Z,1.12
2022-11-03T03:47:16.722Z,1.12
2022-11-03T03:48:17.201Z,1.09
2022-11-03T03:49:16.680Z,1.12
2022-11-03T03:50:16.620Z,1.10
2022-11-03T03:51:17.096Z,1.09
2022-11-03T03:52:17.021Z,1.09
2022-11-03T03:53:16.542Z,1.12
2022-11-03T03:54:16.994Z,1.13
2022-11-03T03:55:16.476Z,1.16
2022-11-03T03:56:17.145Z,1.13
2022-11-03T03:57:16.585Z,1.13
2022-11-03T03:58:17.025Z,1.13
2022-11-03T03:59:16.460Z,1.20
2022-11-03T04:00:16.900Z,1.22
2022-11-03T04:01:16.461Z,1.22
2022-11-03T04:02:17.058Z,1.22
2022-11-03T04:03:16.802Z,1.24
2022-11-03T04:04:17.249Z,1.23
2022-11-03T04:05:16.709Z,1.23
2022-11-03T04:06:17.175Z,1.23
2022-11-03T04:07:16.630Z,1.20
2022-11-03T04:08:17.083Z,1.23
2022-11-03T04:09:16.509Z,1.03
2022-11-03T04:10:16.942Z,1.02
2022-11-03T04:11:16.402Z,1.02
2022-11-03T04:12:17.276Z,1.00
2022-11-03T04:13:16.698Z,1.02
2022-11-03T04:14:17.152Z,1.04
2022-11-03T04:15:16.604Z,1.04
2022-11-03T04:16:17.074Z,1.06
2022-11-03T04:17:16.528Z,1.06
2022-11-03T04:18:17.021Z,1.07
2022-11-03T04:19:16.505Z,1.09
2022-11-03T04:20:16.965Z,1.10
2022-11-03T04:21:16.430Z,1.06
2022-11-03T04:22:17.188Z,0.96
2022-11-03T04:23:16.657Z,0.93
2022-11-03T04:24:17.084Z,0.92
2022-11-03T04:25:16.518Z,0.89
2022-11-03T04:26:16.963Z,0.91
2022-11-03T04:27:16.418Z,0.86
2022-11-03T04:28:16.849Z,0.89
2022-11-03T04:29:16.291Z,0.92
2022-11-03T04:30:16.756Z,0.92
2022-11-03T04:31:17.250Z,0.68
2022-11-03T04:32:16.646Z,0.61
2022-11-03T04:33:17.126Z,0.51
2022-11-03T04:34:16.589Z,0.51
2022-11-03T04:35:17.063Z,0.54
2022-11-03T04:36:16.521Z,0.54
2022-11-03T04:37:16.993Z,0.57
2022-11-03T04:38:16.492Z,0.60
2022-11-03T04:39:17.101Z,0.64
2022-11-03T04:40:16.620Z,0.65
2022-11-03T04:41:16.472Z,0.65
2022-11-03T04:42:16.806Z,0.67
2022-11-03T04:43:17.240Z,0.69
2022-11-03T04:44:16.681Z,0.74
2022-11-03T04:45:17.181Z,0.72
2022-11-03T04:46:16.673Z,0.74
2022-11-03T04:47:17.169Z,0.78
2022-11-03T04:48:16.617Z,0.79
2022-11-03T04:49:17.089Z,0.79
2022-11-03T04:50:16.563Z,0.76
2022-11-03T04:51:17.029Z,0.79
2022-11-03T04:52:16.723Z,0.69
2022-11-03T04:53:17.157Z,0.68
2022-11-03T04:54:16.603Z,0.65
2022-11-03T04:55:17.057Z,0.64
2022-11-03T04:56:16.505Z,0.67
2022-11-03T04:57:16.940Z,0.65
2022-11-03T04:58:16.434Z,0.68
2022-11-03T04:59:16.905Z,0.67
2022-11-03T05:00:16.397Z,0.69
2022-11-03T05:01:21.022Z,0.69
2022-11-03T05:02:17.168Z,0.72
2022-11-03T05:03:16.658Z,0.75
2022-11-03T05:04:17.101Z,0.79
2022-11-03T05:05:16.566Z,0.76
2022-11-03T05:06:16.991Z,0.81
2022-11-03T05:07:16.425Z,0.81
2022-11-03T05:08:16.871Z,0.81
2022-11-03T05:09:16.336Z,0.88
2022-11-03T05:10:16.763Z,0.92
2022-11-03T05:11:17.230Z,0.93
2022-11-03T05:12:17.093Z,0.98
2022-11-03T05:13:16.581Z,0.96
2022-11-03T05:14:17.038Z,0.93
2022-11-03T05:15:16.532Z,0.95
2022-11-03T05:16:17.019Z,0.95
2022-11-03T05:17:16.508Z,0.96
2022-11-03T05:18:16.960Z,0.92
2022-11-03T05:19:16.439Z,0.86
2022-11-03T05:20:16.879Z,0.88
2022-11-03T05:21:16.361Z,0.82
2022-11-03T05:22:17.167Z,0.79
2022-11-03T05:23:16.606Z,0.83
2022-11-03T05:24:17.051Z,0.71
2022-11-03T05:25:16.492Z,0.63
2022-11-03T05:26:16.936Z,0.58
2022-11-03T05:27:16.421Z,0.63
2022-11-03T05:28:16.914Z,0.74
2022-11-03T05:29:16.364Z,0.72
2022-11-03T05:30:16.865Z,0.71
2022-11-03T05:31:16.321Z,0.71
2022-11-03T05:32:17.182Z,0.74
2022-11-03T05:33:16.668Z,0.74
2022-11-03T05:34:17.116Z,0.78
2022-11-03T05:35:16.557Z,0.82
2022-11-03T05:36:16.992Z,0.82
2022-11-03T05:37:16.426Z,0.82
2022-11-03T05:38:16.867Z,0.86
2022-11-03T05:39:16.329Z,0.89
2022-11-03T05:40:16.768Z,0.93
2022-11-03T05:41:17.205Z,0.96
2022-11-03T05:42:16.577Z,0.96
2022-11-03T05:43:17.061Z,1.03
2022-11-03T05:44:16.518Z,1.06
2022-11-03T05:45:16.981Z,1.15
2022-11-03T05:46:16.459Z,1.15
2022-11-03T05:47:16.945Z,1.15
2022-11-03T05:48:16.428Z,1.13
2022-11-03T05:49:16.885Z,1.16
2022-11-03T05:50:16.312Z,1.18
2022-11-03T05:51:16.736Z,1.19
2022-11-03T05:52:16.612Z,1.20
2022-11-03T05:53:17.047Z,1.16
2022-11-03T05:54:18.523Z,1.16
2022-11-03T05:55:16.295Z,1.20
2022-11-03T05:56:16.740Z,1.19
2022-11-03T05:57:17.423Z,1.19
2022-11-03T05:58:16.889Z,1.20
2022-11-03T05:59:16.340Z,1.16
2022-11-03T06:00:16.830Z,1.16
2022-11-03T06:01:17.308Z,1.13
2022-11-03T06:02:16.546Z,1.13
2022-11-03T06:03:17.213Z,1.10
2022-11-03T06:04:16.631Z,1.09
2022-11-03T06:05:17.091Z,1.12
2022-11-03T06:06:16.515Z,1.12
2022-11-03T06:07:16.939Z,1.15
2022-11-03T06:08:16.442Z,1.15
2022-11-03T06:09:16.945Z,1.19
2022-11-03T06:10:16.432Z,1.19
2022-11-03T06:11:16.949Z,1.26
2022-11-03T06:12:16.412Z,1.24
2022-11-03T06:13:16.907Z,1.27
2022-11-03T06:14:18.656Z,1.30
2022-11-03T06:15:17.015Z,1.31
2022-11-03T06:16:16.489Z,1.33
2022-11-03T06:17:16.955Z,1.27
2022-11-03T06:18:16.413Z,1.12
2022-11-03T06:19:16.864Z,1.13
2022-11-03T06:20:16.298Z,1.12
2022-11-03T06:21:16.732Z,1.13
2022-11-03T06:22:16.729Z,1.15
2022-11-03T06:23:17.153Z,1.15
2022-11-03T06:24:16.579Z,1.13
2022-11-03T06:25:17.039Z,1.19
2022-11-03T06:26:16.494Z,1.18
2022-11-03T06:27:16.999Z,1.20
2022-11-03T06:28:16.467Z,1.24
2022-11-03T06:29:16.947Z,1.29
2022-11-03T06:30:16.455Z,1.31
2022-11-03T06:31:18.902Z,1.33
2022-11-03T06:32:16.358Z,1.37
2022-11-03T06:33:16.794Z,1.43
2022-11-03T06:34:17.218Z,1.46
2022-11-03T06:35:16.701Z,1.57
2022-11-03T06:36:17.164Z,1.60
2022-11-03T06:37:16.630Z,1.60
2022-11-03T06:38:17.051Z,1.65
2022-11-03T06:39:16.484Z,1.62
2022-11-03T06:40:16.939Z,1.60
2022-11-03T06:41:16.398Z,1.60
2022-11-03T06:42:16.621Z,1.69
2022-11-03T06:43:17.123Z,1.72
2022-11-03T06:44:16.579Z,1.71
2022-11-03T06:45:17.081Z,1.77
2022-11-03T06:46:16.584Z,1.77
2022-11-03T06:47:17.043Z,1.79
2022-11-03T06:48:16.525Z,1.82
2022-11-03T06:49:17.019Z,1.88
2022-11-03T06:50:16.462Z,1.90
2022-11-03T06:51:16.935Z,1.95
2022-11-03T06:52:17.232Z,1.99
2022-11-03T06:53:16.666Z,2.00
2022-11-03T06:54:17.141Z,2.05
2022-11-03T06:55:17.025Z,2.06
2022-11-03T06:56:16.732Z,2.09
2022-11-03T06:57:17.208Z,2.05
2022-11-03T06:58:16.692Z,2.03
2022-11-03T06:59:17.202Z,2.00
2022-11-03T07:01:16.709Z,1.98
2022-11-03T07:02:16.362Z,1.96
2022-11-03T07:03:17.056Z,1.95
2022-11-03T07:04:16.491Z,1.95
2022-11-03T07:05:17.009Z,1.96
2022-11-03T07:06:16.473Z,1.99
2022-11-03T07:07:16.932Z,2.05
2022-11-03T07:08:16.398Z,2.07
2022-11-03T07:09:16.867Z,2.07
2022-11-03T07:10:16.339Z,2.10
2022-11-03T07:11:16.806Z,2.13
2022-11-03T07:12:16.653Z,2.14
2022-11-03T07:13:17.105Z,2.17
2022-11-03T07:14:16.587Z,2.17
2022-11-03T07:15:17.020Z,2.23
2022-11-03T07:16:17.847Z,2.27
2022-11-03T07:17:16.654Z,2.32
2022-11-03T07:18:17.102Z,2.36
2022-11-03T07:19:16.531Z,2.34
2022-11-03T07:20:16.972Z,2.37
2022-11-03T07:21:16.398Z,2.45
2022-11-03T07:22:16.396Z,2.54
2022-11-03T07:23:16.885Z,2.55
2022-11-03T07:24:16.392Z,2.61
2022-11-03T07:25:16.856Z,2.61
2022-11-03T07:26:16.313Z,2.63
2022-11-03T07:27:16.794Z,2.65
2022-11-03T07:28:17.275Z,2.65
2022-11-03T07:29:16.736Z,2.64
2022-11-03T07:30:17.264Z,2.72
2022-11-03T07:31:16.871Z,2.79
2022-11-03T07:32:16.382Z,2.82
2022-11-03T07:33:16.813Z,2.84
2022-11-03T07:34:17.240Z,2.92
2022-11-03T07:35:16.657Z,2.93
2022-11-03T07:36:17.344Z,3.06
2022-11-03T07:37:16.924Z,3.07
2022-11-03T07:38:16.434Z,3.14
2022-11-03T07:39:16.916Z,3.26
2022-11-03T07:40:16.383Z,3.26
2022-11-03T07:41:16.860Z,3.27
2022-11-03T07:42:16.332Z,3.31
2022-11-03T07:43:16.789Z,3.44
2022-11-03T07:44:17.261Z,3.51
2022-11-03T07:45:16.724Z,3.58
2022-11-03T07:46:17.171Z,3.65
2022-11-03T07:47:16.628Z,3.69
2022-11-03T07:48:17.082Z,3.69
2022-11-03T07:49:16.512Z,3.72
2022-11-03T07:50:16.969Z,3.78
2022-11-03T07:51:16.453Z,3.81
2022-11-03T07:52:17.024Z,3.79
2022-11-03T07:53:16.497Z,3.86
2022-11-03T07:54:16.965Z,3.90
2022-11-03T07:55:16.433Z,3.98
2022-11-03T07:56:16.903Z,3.99
2022-11-03T07:57:16.483Z,4.09
2022-11-03T07:58:16.964Z,4.13
2022-11-03T07:59:16.463Z,4.20
2022-11-03T08:00:17.175Z,4.20
2022-11-03T08:01:16.640Z,4.36
2022-11-03T08:02:16.712Z,4.34
2022-11-03T08:03:16.387Z,4.43
2022-11-03T08:04:16.818Z,4.57
2022-11-03T08:05:17.293Z,4.63
2022-11-03T08:06:18.776Z,4.75
2022-11-03T08:07:16.652Z,4.81
2022-11-03T08:08:17.135Z,4.91
2022-11-03T08:09:16.620Z,4.91
2022-11-03T08:10:17.101Z,4.99
2022-11-03T08:11:16.610Z,5.13
2022-11-03T08:12:16.360Z,5.23
2022-11-03T08:13:16.837Z,5.28
2022-11-03T08:14:17.264Z,5.35
2022-11-03T08:15:16.708Z,5.50
2022-11-03T08:16:17.167Z,5.55
2022-11-03T08:17:16.596Z,5.60
2022-11-03T08:18:17.021Z,5.70
2022-11-03T08:19:16.514Z,5.75
2022-11-03T08:20:16.997Z,5.79
2022-11-03T08:21:16.499Z,5.89
2022-11-03T08:22:17.188Z,5.89
2022-11-03T08:23:25.511Z,5.95
2022-11-03T08:24:17.124Z,6.08
2022-11-03T08:25:16.591Z,6.17
2022-11-03T08:26:17.072Z,6.20
2022-11-03T08:27:16.563Z,6.24
2022-11-03T08:28:16.989Z,6.37
2022-11-03T08:29:16.415Z,6.38
2022-11-03T08:30:16.872Z,6.40
2022-11-03T08:31:16.307Z,6.44
2022-11-03T08:32:16.976Z,6.59
2022-11-03T08:33:16.474Z,6.65
2022-11-03T08:34:17.046Z,6.69
2022-11-03T08:35:16.531Z,6.75
2022-11-03T08:36:17.106Z,6.78
2022-11-03T08:37:16.847Z,6.86
2022-11-03T08:38:16.300Z,6.85
2022-11-03T08:39:16.769Z,6.98
2022-11-03T08:40:17.241Z,7.05
2022-11-03T08:41:16.718Z,7.12
2022-11-03T08:42:16.912Z,7.15
2022-11-03T08:43:16.364Z,7.24
2022-11-03T08:44:16.816Z,7.24
2022-11-03T08:45:17.247Z,7.22
2022-11-03T08:46:17.939Z,7.24
2022-11-03T08:47:16.946Z,7.29
2022-11-03T08:48:16.531Z,7.40
2022-11-03T08:49:17.011Z,7.44
2022-11-03T08:50:16.510Z,7.64
2022-11-03T08:51:16.973Z,7.71
2022-11-03T08:52:16.901Z,7.74
2022-11-03T08:53:16.406Z,7.78
2022-11-03T08:54:16.908Z,7.81
2022-11-03T08:55:16.410Z,7.80
2022-11-03T08:56:19.220Z,7.88
2022-11-03T08:57:17.082Z,7.98
2022-11-03T08:58:16.514Z,8.05
2022-11-03T08:59:16.945Z,8.20
2022-11-03T09:00:16.404Z,8.20
2022-11-03T09:01:16.896Z,8.19
2022-11-03T09:02:16.742Z,8.24
2022-11-03T09:03:16.330Z,8.45
2022-11-03T09:04:16.995Z,8.52
2022-11-03T09:05:16.478Z,8.52
2022-11-03T09:06:17.024Z,8.52
2022-11-03T09:07:16.586Z,8.54
2022-11-03T09:11:16.799Z,8.69
2022-11-03T09:12:16.393Z,8.76
2022-11-03T09:13:16.870Z,8.82
2022-11-03T09:14:16.305Z,8.84
2022-11-03T09:15:16.773Z,8.94
2022-11-03T09:16:17.345Z,8.95
2022-11-03T09:17:16.952Z,8.91
2022-11-03T09:18:16.407Z,8.95
2022-11-03T09:19:16.911Z,9.09
2022-11-03T09:20:16.375Z,9.22
2022-11-03T09:21:16.845Z,9.16
2022-11-03T09:22:16.298Z,9.22
2022-11-03T09:23:16.780Z,9.23
2022-11-03T09:24:17.243Z,9.24
2022-11-03T09:25:16.726Z,9.31
2022-11-03T09:26:17.223Z,9.34
2022-11-03T09:27:16.820Z,9.37
2022-11-03T09:28:17.255Z,9.38
2022-11-03T09:29:16.693Z,9.38
2022-11-03T09:30:17.148Z,9.47
2022-11-03T09:31:16.605Z,9.48
2022-11-03T09:32:21.948Z,9.54
2022-11-03T09:33:17.083Z,9.55
2022-11-03T09:34:16.512Z,9.66
2022-11-03T09:35:17.048Z,9.74
2022-11-03T09:36:16.598Z,9.78
2022-11-03T09:37:17.148Z,9.80
2022-11-03T09:38:16.674Z,9.86
2022-11-03T09:39:17.191Z,9.93
2022-11-03T09:40:16.704Z,10.09
2022-11-03T09:41:24.728Z,10.12
2022-11-03T09:42:17.196Z,10.12
2022-11-03T09:43:16.627Z,10.17
2022-11-03T09:44:17.062Z,10.20
2022-11-03T09:45:16.514Z,10.30
2022-11-03T09:46:16.999Z,10.37
2022-11-03T09:47:16.448Z,10.45
2022-11-03T09:48:16.930Z,10.48
2022-11-03T09:49:16.422Z,10.52
2022-11-03T09:50:16.940Z,10.54
2022-11-03T09:51:16.407Z,10.64
2022-11-03T09:52:17.244Z,10.65
2022-11-03T09:53:16.715Z,10.68
2022-11-03T09:54:17.219Z,10.71
2022-11-03T09:55:16.751Z,10.75
2022-11-03T09:56:17.224Z,10.78
2022-11-03T09:57:16.680Z,10.87
2022-11-03T09:58:17.128Z,10.84
2022-11-03T09:59:16.576Z,10.94
2022-11-03T10:00:17.008Z,10.94
2022-11-03T10:01:16.584Z,11.06
2022-11-03T10:02:17.032Z,11.22
2022-11-03T10:03:16.621Z,11.07
2022-11-03T10:04:17.098Z,11.06
2022-11-03T10:06:17.065Z,11.30
2022-11-03T10:07:16.621Z,11.43
2022-11-03T10:08:18.478Z,11.43
2022-11-03T10:09:16.298Z,11.44
2022-11-03T10:10:16.775Z,11.47
2022-11-03T10:11:17.240Z,11.53
2022-11-03T10:12:16.669Z,11.58
2022-11-03T10:13:17.138Z,11.55
2022-11-03T10:14:16.609Z,11.75
2022-11-03T10:15:17.044Z,11.82
2022-11-03T10:16:16.467Z,11.86
2022-11-03T10:17:16.911Z,11.89
2022-11-03T10:18:16.387Z,11.85
2022-11-03T10:19:16.884Z,11.81
2022-11-03T10:20:16.384Z,11.71
2022-11-03T10:21:16.861Z,11.86
2022-11-03T10:22:17.305Z,11.98
2022-11-03T10:23:16.783Z,11.96
2022-11-03T10:24:17.262Z,12.05
2022-11-03T10:25:16.719Z,12.08
2022-11-03T10:26:17.176Z,12.13
2022-11-03T10:27:16.641Z,12.25
2022-11-03T10:28:17.070Z,12.32
2022-11-03T10:29:16.543Z,12.36
2022-11-03T10:30:17.252Z,12.37
2022-11-03T10:31:16.799Z,12.36
2022-11-03T10:32:17.321Z,12.39
2022-11-03T10:33:16.764Z,12.36
2022-11-03T10:34:17.241Z,12.54
2022-11-03T10:35:16.708Z,12.58
2022-11-03T10:36:17.227Z,12.54
2022-11-03T10:37:16.748Z,12.37
2022-11-03T10:38:17.291Z,12.37
2022-11-03T10:39:16.773Z,12.51
2022-11-03T10:40:28.342Z,12.54
2022-11-03T10:41:16.778Z,12.56
2022-11-03T10:42:17.065Z,12.56
2022-11-03T10:43:16.511Z,12.51
2022-11-03T10:44:16.941Z,12.68
2022-11-03T10:45:16.382Z,12.63
2022-11-03T10:46:29.795Z,12.56
2022-11-03T10:47:16.316Z,12.63
2022-11-03T10:48:16.761Z,12.54
2022-11-03T10:49:17.219Z,12.53
2022-11-03T10:50:16.815Z,12.47
2022-11-03T10:51:16.396Z,12.46
2022-11-03T10:52:17.158Z,12.39
2022-11-03T10:53:16.702Z,12.41
2022-11-03T10:54:17.287Z,12.32
2022-11-03T10:55:19.200Z,12.53
2022-11-03T10:56:16.738Z,12.60
2022-11-03T10:57:17.184Z,12.64
2022-11-03T10:58:16.648Z,12.61
2022-11-03T10:59:17.079Z,12.77
2022-11-03T11:00:16.658Z,12.85
2022-11-03T11:01:16.450Z,12.74
2022-11-03T11:02:16.619Z,12.88
2022-11-03T11:03:17.997Z,12.87
2022-11-03T11:04:16.689Z,12.84
2022-11-03T11:05:16.340Z,12.89
2022-11-03T11:06:16.840Z,12.77
2022-11-03T11:07:16.340Z,12.99
2022-11-03T11:08:16.926Z,13.08
2022-11-03T11:09:16.590Z,13.09
2022-11-03T11:10:17.054Z,13.04
2022-11-03T11:11:16.488Z,13.02
2022-11-03T11:12:17.064Z,13.11
2022-11-03T11:13:16.498Z,13.15
2022-11-03T11:14:16.932Z,13.26
2022-11-03T11:15:16.377Z,13.27
2022-11-03T11:16:16.809Z,13.39
2022-11-03T11:17:17.346Z,13.42
2022-11-03T11:18:16.874Z,13.42
2022-11-03T11:19:16.432Z,13.49
2022-11-03T11:20:16.906Z,13.49
2022-11-03T11:21:16.366Z,13.46
2022-11-03T11:22:16.988Z,13.44
2022-11-03T11:23:16.446Z,13.33
2022-11-03T11:24:16.937Z,13.23
2022-11-03T11:25:16.374Z,13.47
2022-11-03T11:26:16.857Z,13.50
2022-11-03T11:27:16.322Z,13.50
2022-11-03T11:28:16.755Z,13.46
2022-11-03T11:29:17.267Z,13.47
2022-11-03T11:30:16.716Z,13.50
2022-11-03T11:31:17.173Z,13.53
2022-11-03T11:32:16.573Z,13.54
2022-11-03T11:33:17.035Z,13.63
2022-11-03T11:34:16.538Z,13.74
2022-11-03T11:35:17.000Z,13.70
2022-11-03T11:36:16.458Z,13.54
2022-11-03T11:37:16.941Z,13.63
2022-11-03T11:38:16.401Z,13.67
2022-11-03T11:39:16.842Z,13.73
2022-11-03T11:40:17.269Z,13.87
2022-11-03T11:41:16.719Z,13.88
2022-11-03T11:42:16.760Z,13.97
2022-11-03T11:43:16.309Z,13.95
2022-11-03T11:44:16.754Z,13.77
2022-11-03T11:45:17.184Z,13.81
2022-11-03T11:46:16.677Z,13.88
2022-11-03T11:47:17.159Z,13.98
2022-11-03T11:48:18.738Z,14.09
2022-11-03T11:49:16.890Z,14.08
2022-11-03T11:50:16.372Z,14.07
2022-11-03T11:51:16.839Z,14.00
2022-11-03T11:52:19.116Z,14.00
2022-11-03T11:53:16.813Z,14.02
2022-11-03T11:54:18.267Z,14.01
2022-11-03T11:55:17.157Z,14.01
2022-11-03T11:56:16.578Z,14.12
2022-11-03T11:57:17.013Z,14.16
2022-11-03T11:58:16.452Z,14.15
2022-11-03T11:59:20.148Z,14.18
2022-11-03T12:00:16.672Z,14.16
2022-11-03T12:01:17.160Z,14.23
2022-11-03T12:02:16.812Z,14.16
2022-11-03T12:03:17.328Z,14.11
2022-11-03T12:05:16.416Z,14.08
2022-11-03T12:06:16.881Z,14.08
2022-11-03T12:07:16.364Z,13.98
2022-11-03T12:08:16.957Z,14.02
2022-11-03T12:09:16.445Z,14.04
2022-11-03T12:10:16.885Z,14.12
2022-11-03T12:11:16.364Z,14.15
2022-11-03T12:12:17.242Z,14.19
2022-11-03T12:13:16.671Z,14.29
2022-11-03T12:14:17.122Z,14.26
2022-11-03T12:15:16.625Z,14.26
2022-11-03T12:16:17.101Z,14.16
2022-11-03T12:17:16.594Z,14.16
2022-11-03T12:18:17.058Z,14.13
2022-11-03T12:19:16.518Z,14.18
2022-11-03T12:20:17.020Z,14.18
2022-11-03T12:21:16.509Z,14.11
2022-11-03T12:22:16.872Z,14.11
2022-11-03T12:23:16.295Z,14.16
2022-11-03T12:24:16.729Z,14.11
2022-11-03T12:25:17.201Z,13.90
2022-11-03T12:26:16.643Z,13.92
2022-11-03T12:27:17.078Z,14.07
2022-11-03T12:28:16.517Z,14.08
2022-11-03T12:29:16.976Z,14.16
2022-11-03T12:30:16.425Z,14.18
2022-11-03T12:31:16.901Z,14.16
2022-11-03T12:32:25.504Z,14.13
2022-11-03T12:33:16.918Z,14.23
2022-11-03T12:34:16.376Z,14.23
2022-11-03T12:35:16.886Z,14.19
2022-11-03T12:36:16.340Z,14.20
2022-11-03T12:37:16.787Z,14.12
2022-11-03T12:38:17.235Z,14.16
2022-11-03T12:39:16.689Z,14.25
2022-11-03T12:40:17.146Z,14.20
2022-11-03T12:41:16.592Z,14.12
2022-11-03T12:42:16.760Z,14.07
2022-11-03T12:43:17.204Z,14.00
2022-11-03T12:44:16.957Z,14.01
2022-11-03T12:45:16.581Z,14.07
2022-11-03T12:46:17.062Z,14.04
2022-11-03T12:47:16.573Z,13.94
2022-11-03T12:48:17.039Z,13.92
2022-11-03T12:49:16.509Z,13.87
2022-11-03T12:50:16.962Z,13.91
2022-11-03T12:51:16.436Z,13.94
2022-11-03T12:52:17.193Z,13.84
2022-11-03T12:53:16.662Z,13.91
2022-11-03T12:54:17.085Z,13.98
2022-11-03T12:55:16.564Z,13.85
2022-11-03T12:56:17.168Z,13.84
2022-11-03T12:57:16.600Z,13.91
2022-11-03T12:58:17.058Z,13.92
2022-11-03T12:59:16.553Z,13.92
2022-11-03T13:00:17.033Z,13.98
2022-11-03T13:01:16.679Z,13.94
2022-11-03T13:02:17.379Z,14.02
2022-11-03T13:03:17.060Z,14.01
2022-11-03T13:04:16.564Z,14.01
2022-11-03T13:05:17.114Z,13.98
2022-11-03T13:06:16.564Z,14.01
2022-11-03T13:07:20.564Z,13.82
2022-11-03T13:09:16.792Z,13.82
2022-11-03T13:10:17.221Z,13.85
2022-11-03T13:11:16.670Z,13.81
2022-11-03T13:12:16.485Z,13.90
2022-11-03T13:13:16.996Z,13.90
2022-11-03T13:14:16.517Z,13.91
2022-11-03T13:15:16.990Z,13.91
2022-11-03T13:16:16.501Z,13.84
2022-11-03T13:17:17.012Z,13.67
2022-11-03T13:18:16.516Z,13.58